Time;durP1;ratioP1;P1;durP2;ratioP2;P2;SDS_P1;SDS_P2;PMS_P1;PMS_P2;Temp;Humidity;BMP_temperature;BMP_pressure;BME280_temperature;BME280_humidity;BME280_pressure;Samples;Min_cycle;Max_cycle;Signal;HPM_P1;HPM_P2
2022/09/16 00:01:11;;;;;;;11.15;7.55;;;;;;;15.06;100.00;97216.54;1687665;84;28113;-89
2022/09/16 00:03:43;;;;;;;11.97;7.35;;;;;;;15.06;100.00;97221.31;1685440;82;28123;-89
2022/09/16 00:06:21;;;;;;;12.15;6.47;;;;;;;15.05;100.00;97210.45;1682635;83;28082;-89
2022/09/16 00:08:48;;;;;;;10.15;6.78;;;;;;;15.07;100.00;97210.28;1659641;84;28108;-89
2022/09/16 00:11:18;;;;;;;10.63;6.65;;;;;;;15.06;100.00;97213.91;1685242;83;28066;-89
2022/09/16 00:13:57;;;;;;;10.20;6.95;;;;;;;15.05;100.00;97210.97;1680340;82;28196;-89
2022/09/16 00:16:25;;;;;;;9.38;6.00;;;;;;;15.07;100.00;97216.38;1680487;83;28055;-89
2022/09/16 00:19:02;;;;;;;9.90;6.95;;;;;;;15.09;100.00;97218.86;1686039;82;28189;-89
2022/09/16 00:21:29;;;;;;;11.73;6.10;;;;;;;15.11;100.00;97222.66;1688584;84;28144;-89
2022/09/16 00:23:56;;;;;;;9.20;5.83;;;;;;;15.10;100.00;97216.56;1680465;83;28016;-89
2022/09/16 00:26:25;;;;;;;13.60;6.40;;;;;;;15.07;100.00;97224.78;1686006;83;28079;-89
2022/09/16 00:28:51;;;;;;;8.90;6.28;;;;;;;15.10;100.00;97224.95;1629090;86;28055;-89
2022/09/16 00:31:19;;;;;;;8.53;6.42;;;;;;;15.16;100.00;97234.36;1669095;84;28086;-89
2022/09/16 00:33:45;;;;;;;9.85;6.67;;;;;;;15.17;100.00;97251.79;1678196;84;28008;-89
2022/09/16 00:36:18;;;;;;;9.25;6.70;;;;;;;15.20;100.00;97252.80;1677518;84;28084;-88
2022/09/16 00:38:45;;;;;;;9.43;6.70;;;;;;;15.22;100.00;97244.73;1653754;84;28109;-89
2022/09/16 00:41:22;;;;;;;10.68;6.40;;;;;;;15.23;100.00;97247.67;1646718;85;28089;-89
2022/09/16 00:43:57;;;;;;;8.90;6.67;;;;;;;15.23;100.00;97252.45;1641495;86;28192;-89
2022/09/16 00:46:36;;;;;;;8.45;6.22;;;;;;;15.18;100.00;97252.13;1619217;88;28112;-89
2022/09/16 00:49:22;;;;;;;8.63;5.95;;;;;;;15.21;100.00;97250.50;1615880;88;28065;-89
2022/09/16 00:51:54;;;;;;;10.20;6.10;;;;;;;15.23;100.00;97255.58;1614648;86;28207;-89
2022/09/16 00:54:21;;;;;;;8.83;5.85;;;;;;;15.22;100.00;97253.95;1678335;84;28128;-89
2022/09/16 00:56:51;;;;;;;11.12;5.97;;;;;;;15.21;100.00;97258.89;1677020;83;28119;-89
2022/09/16 00:59:30;;;;;;;8.80;5.72;;;;;;;15.19;100.00;97251.14;1651025;85;28166;-89
2022/09/16 01:02:00;;;;;;;6.80;5.80;;;;;;;15.18;100.00;97253.44;1648524;85;28031;-89
2022/09/16 01:04:34;;;;;;;10.78;5.42;;;;;;;15.19;100.00;97260.86;1651925;85;37607;-88
2022/09/16 01:07:02;;;;;;;12.05;6.37;;;;;;;15.16;100.00;97263.34;1645051;86;28106;-89
2022/09/16 01:09:35;;;;;;;6.03;5.17;;;;;;;15.13;100.00;97262.83;1618975;87;28179;-89
2022/09/16 01:12:01;;;;;;;8.45;5.97;;;;;;;15.11;100.00;97260.87;1618086;87;28128;-89
2022/09/16 01:17:41;;;;;;;7.70;5.83;;;;;;;15.08;100.00;97267.28;1652208;85;28037;-89
2022/09/16 01:20:13;;;;;;;9.08;6.37;;;;;;;15.08;100.00;97264.64;1621109;86;28088;-90
2022/09/16 01:23:01;;;;;;;9.28;6.12;;;;;;;15.09;100.00;97272.88;1616397;87;28155;-90
2022/09/16 01:25:51;;;;;;;7.75;5.62;;;;;;;15.05;100.00;97271.05;1653572;86;28090;-89
2022/09/16 01:32:03;;;;;;;12.53;6.37;;;;;;;15.08;100.00;97268.59;1694443;83;28090;-88
2022/09/16 01:34:36;;;;;;;8.88;5.62;;;;;;;15.09;100.00;97267.61;1697328;82;28121;-89
2022/09/16 01:37:18;;;;;;;10.18;5.67;;;;;;;15.10;100.00;97271.91;1695710;83;28116;-89
2022/09/16 01:39:57;;;;;;;7.95;5.67;;;;;;;15.06;100.00;97273.19;1690956;82;28183;-89
2022/09/16 01:42:59;;;;;;;9.98;5.72;;;;;;;15.04;100.00;97272.06;1697228;82;28022;-89
2022/09/16 01:45:45;;;;;;;7.33;5.67;;;;;;;15.02;100.00;97270.07;1695338;82;28026;-89
2022/09/16 01:48:26;;;;;;;8.93;5.33;;;;;;;15.02;100.00;97270.56;1693708;82;28179;-89
2022/09/16 01:50:54;;;;;;;7.90;5.42;;;;;;;15.00;100.00;97276.51;1695482;82;28480;-89
2022/09/16 01:53:24;;;;;;;6.30;5.10;;;;;;;14.97;100.00;97274.18;1689041;82;28157;-89
2022/09/16 01:55:54;;;;;;;7.12;5.58;;;;;;;14.95;100.00;97275.66;1697881;82;28078;-89
2022/09/16 01:58:44;;;;;;;6.85;5.30;;;;;;;14.92;100.00;97280.43;1695869;82;28079;-89
2022/09/16 02:01:25;;;;;;;7.60;5.50;;;;;;;14.86;100.00;97281.91;1695612;82;28071;-89
2022/09/16 02:03:59;;;;;;;9.63;5.67;;;;;;;14.83;100.00;97280.09;1696772;83;28203;-89
2022/09/16 02:06:31;;;;;;;7.25;5.05;;;;;;;14.79;100.00;97282.70;1696134;82;28134;-88
2022/09/16 02:09:01;;;;;;;11.38;5.53;;;;;;;14.76;100.00;97285.18;1697446;82;28227;-89
2022/09/16 02:11:28;;;;;;;9.48;5.30;;;;;;;14.73;100.00;97289.95;1695751;82;28003;-89
2022/09/16 02:14:10;;;;;;;6.15;4.67;;;;;;;14.73;100.00;97286.00;1696094;84;28074;-89
2022/09/16 02:16:56;;;;;;;8.40;5.12;;;;;;;14.69;100.00;97285.48;1697053;83;28197;-88
2022/09/16 02:19:26;;;;;;;5.62;4.90;;;;;;;14.70;100.00;97284.99;1688049;82;28065;-89
2022/09/16 02:22:05;;;;;;;7.67;5.40;;;;;;;14.64;100.00;97283.83;1696309;83;28102;-89
2022/09/16 02:24:33;;;;;;;8.68;5.22;;;;;;;14.62;100.00;97285.30;1696414;84;28074;-88
2022/09/16 02:27:07;;;;;;;8.18;4.92;;;;;;;14.59;100.00;97284.31;1697030;84;28183;-89
2022/09/16 02:29:42;;;;;;;7.47;5.20;;;;;;;14.55;100.00;97288.25;1682238;83;28169;-89
2022/09/16 02:32:11;;;;;;;7.87;4.60;;;;;;;14.52;100.00;97291.19;1679907;83;28164;-89
2022/09/16 02:34:41;;;;;;;9.70;4.97;;;;;;;14.51;100.00;97291.38;1691517;83;28260;-89
2022/09/16 02:37:16;;;;;;;8.10;5.00;;;;;;;14.48;100.00;97293.81;1681448;83;28117;-89
2022/09/16 02:39:46;;;;;;;6.72;4.78;;;;;;;14.43;100.00;97287.37;1677063;83;28152;-89
2022/09/16 02:42:13;;;;;;;7.85;5.15;;;;;;;14.44;100.00;97287.72;1688779;83;28066;-88
2022/09/16 02:44:46;;;;;;;6.90;5.28;;;;;;;14.43;100.00;97295.27;1690968;83;28114;-88
2022/09/16 02:47:38;;;;;;;8.98;4.83;;;;;;;14.44;100.00;97293.81;1684926;84;28090;-89
2022/09/16 02:50:08;;;;;;;10.28;4.95;;;;;;;14.42;100.00;97285.72;1680228;83;28209;-89
2022/09/16 02:53:03;;;;;;;6.75;5.25;;;;;;;14.39;100.00;97276.84;1688650;83;28010;-89
2022/09/16 02:55:45;;;;;;;6.75;4.87;;;;;;;14.32;100.00;97266.09;1686793;83;28084;-89
2022/09/16 02:58:13;;;;;;;;;;;;;;;14.27;100.00;97257.02;1692781;83;28094;-89
2022/09/16 03:00:50;;;;;;;7.45;5.10;;;;;;;14.24;100.00;97258.14;1683085;84;25990;-89
2022/09/16 03:03:18;;;;;;;8.33;4.80;;;;;;;14.19;100.00;97252.05;1686583;83;28135;-89
2022/09/16 03:06:17;;;;;;;6.65;5.15;;;;;;;14.21;100.00;97257.98;1683196;83;28063;-89
2022/09/16 03:09:01;;;;;;;9.65;5.20;;;;;;;14.19;100.00;97265.20;1684369;83;28041;-88
2022/09/16 03:11:59;;;;;;;8.65;5.47;;;;;;;14.19;100.00;97265.20;1684616;83;28176;-89
2022/09/16 03:14:45;;;;;;;6.65;5.10;;;;;;;14.16;100.00;97269.97;1689982;83;28074;-89
2022/09/16 03:17:47;;;;;;;7.05;5.20;;;;;;;14.14;100.00;97277.19;1684879;83;28070;-89
2022/09/16 03:20:32;;;;;;;;;;;;;;;14.12;100.00;97279.17;1693319;83;28034;-89
2022/09/16 03:23:10;;;;;;;10.30;5.45;;;;;;;14.09;100.00;97288.67;1682074;83;24939;-89
2022/09/16 03:25:55;;;;;;;7.35;5.45;;;;;;;14.05;100.00;97286.86;1664291;84;28123;-89
2022/09/16 03:28:49;;;;;;;10.93;5.80;;;;;;;14.02;100.00;97286.36;1684257;81;28223;-89
2022/09/16 03:31:23;;;;;;;8.30;5.28;;;;;;;13.98;100.00;97290.25;1660575;84;28183;-89
2022/09/16 03:33:55;;;;;;;5.95;4.62;;;;;;;13.95;100.00;97282.69;1658417;84;28097;-89
2022/09/16 03:36:33;;;;;;;7.17;5.30;;;;;;;13.91;100.00;97284.79;1658814;85;28085;-89
2022/09/16 03:39:02;;;;;;;9.28;5.05;;;;;;;13.90;100.00;97279.70;1660203;86;28116;-89
2022/09/16 03:41:31;;;;;;;7.25;5.25;;;;;;;13.87;100.00;97277.38;1660351;84;28016;-89
2022/09/16 03:43:58;;;;;;;10.08;5.37;;;;;;;13.86;100.00;97284.44;1660999;84;28092;-89
2022/09/16 03:46:27;;;;;;;12.53;5.62;;;;;;;13.85;100.00;97284.12;1660211;84;28026;-89
2022/09/16 03:48:56;;;;;;;6.67;5.15;;;;;;;13.80;100.00;97287.19;1601643;87;28095;-88
2022/09/16 03:51:23;;;;;;;7.90;5.87;;;;;;;13.79;100.00;97282.94;1651304;84;28080;-88
2022/09/16 03:53:50;;;;;;;7.33;5.08;;;;;;;13.78;100.00;97285.23;1628677;87;28178;-88
2022/09/16 03:56:23;;;;;;;7.90;5.12;;;;;;;13.79;100.00;97289.52;1604789;87;28106;-89
2022/09/16 03:58:58;;;;;;;9.23;5.90;;;;;;;13.78;100.00;97283.91;1603247;87;28155;-88
2022/09/16 04:01:27;;;;;;;8.63;5.25;;;;;;;13.76;100.00;97284.55;1630761;86;28048;-89
2022/09/16 04:03:53;;;;;;;8.88;5.72;;;;;;;13.76;100.00;97283.72;1629770;86;28088;-89
2022/09/16 04:06:19;;;;;;;6.10;5.40;;;;;;;13.75;100.00;97284.20;1630648;86;28084;-89
2022/09/16 04:08:49;;;;;;;5.90;5.05;;;;;;;13.74;100.00;97284.38;1626317;86;28069;-88
2022/09/16 04:11:17;;;;;;;7.83;5.25;;;;;;;13.71;100.00;97288.13;1630698;86;28037;-88
2022/09/16 04:13:46;;;;;;;9.28;5.90;;;;;;;13.72;100.00;97272.70;1630308;86;28092;-88
2022/09/16 04:16:20;;;;;;;10.60;6.08;;;;;;;13.69;100.00;97274.30;1630518;86;28095;-88
2022/09/16 04:18:48;;;;;;;9.05;5.85;;;;;;;13.68;100.00;97280.56;1630668;86;28147;-88
2022/09/16 04:21:22;;;;;;;8.68;5.42;;;;;;;13.67;100.00;97274.97;1629570;86;28158;-88
2022/09/16 04:23:48;;;;;;;9.30;6.15;;;;;;;13.65;100.00;97276.91;1630725;86;28225;-87
2022/09/16 04:26:22;;;;;;;7.78;6.10;;;;;;;13.63;100.00;97272.32;1630770;86;28211;-88
2022/09/16 04:28:53;;;;;;;7.55;5.45;;;;;;;13.62;100.00;97261.47;1663937;81;28260;-88
2022/09/16 04:31:21;;;;;;;7.03;5.05;;;;;;;13.63;100.00;97256.55;1659700;85;28066;-88
2022/09/16 04:33:49;;;;;;;6.60;5.08;;;;;;;13.63;100.00;97259.66;1660159;84;28085;-89
2022/09/16 04:36:18;;;;;;;10.65;5.72;;;;;;;13.63;100.00;97258.34;1659502;85;28168;-89
2022/09/16 04:38:47;;;;;;;8.80;5.58;;;;;;;13.57;100.00;97260.27;1658789;86;28030;-89
2022/09/16 04:41:17;;;;;;;8.53;5.50;;;;;;;13.55;100.00;97261.73;1604053;87;28161;-89
2022/09/16 04:43:43;;;;;;;6.10;4.97;;;;;;;13.59;100.00;97252.55;1630166;86;28153;-88
2022/09/16 04:46:13;;;;;;;9.85;6.35;;;;;;;13.60;100.00;97250.75;1661365;84;28131;-88
2022/09/16 04:48:42;;;;;;;9.18;6.80;;;;;;;13.61;100.00;97251.09;1648625;85;28124;-89
2022/09/16 04:51:10;;;;;;;8.80;6.15;;;;;;;13.63;100.00;97253.92;1632519;86;28036;-89
2022/09/16 04:53:42;;;;;;;8.68;6.55;;;;;;;13.64;100.00;97259.97;1629921;85;28080;-89
2022/09/16 04:56:14;;;;;;;9.75;7.28;;;;;;;13.65;100.00;97263.77;1630620;86;28127;-89
2022/09/16 04:58:50;;;;;;;8.80;7.10;;;;;;;13.66;100.00;97268.05;1630478;87;28171;-89
2022/09/16 05:01:20;;;;;;;8.38;6.62;;;;;;;13.65;100.00;97285.29;1628693;86;28084;-88
2022/09/16 05:03:52;;;;;;;11.73;6.65;;;;;;;13.65;100.00;97293.17;1630918;87;28411;-88
2022/09/16 05:06:20;;;;;;;8.88;6.37;;;;;;;13.64;100.00;97295.47;1629934;85;28017;-88
2022/09/16 05:08:47;;;;;;;9.60;6.50;;;;;;;13.62;100.00;97304.02;1612173;87;28099;-88
2022/09/16 05:11:18;;;;;;;7.08;5.50;;;;;;;13.62;100.00;97300.90;1601442;88;28090;-88
2022/09/16 05:13:51;;;;;;;8.03;5.15;;;;;;;13.64;100.00;97303.34;1635736;86;28412;-89
2022/09/16 05:16:21;;;;;;;7.20;5.53;;;;;;;13.64;100.00;97302.86;1636062;86;28084;-89
2022/09/16 05:18:50;;;;;;;11.45;5.58;;;;;;;13.64;100.00;97298.09;1635986;86;28088;-89
2022/09/16 05:21:19;;;;;;;6.08;4.62;;;;;;;13.61;100.00;97302.36;1636326;86;28001;-89
2022/09/16 05:23:46;;;;;;;7.53;4.95;;;;;;;13.61;100.00;97297.92;1636091;86;28133;-88
2022/09/16 05:26:25;;;;;;;12.35;5.50;;;;;;;13.65;100.00;97300.58;1636162;86;28099;-88
2022/09/16 05:28:52;;;;;;;5.60;4.72;;;;;;;13.69;100.00;97297.97;1636301;86;28118;-89
2022/09/16 05:31:36;;;;;;;7.62;4.55;;;;;;;13.72;100.00;97292.91;1652486;85;28120;-88
2022/09/16 05:34:15;;;;;;;5.30;4.55;;;;;;;13.71;100.00;97275.47;1649152;85;28100;-88
2022/09/16 05:36:49;;;;;;;6.53;4.92;;;;;;;13.72;100.00;97271.87;1646093;85;28116;-88
2022/09/16 05:39:17;;;;;;;5.62;3.77;;;;;;;13.73;100.00;97268.27;1659187;84;28091;-89
2022/09/16 05:41:51;;;;;;;7.55;4.50;;;;;;;13.72;100.00;97263.98;1661663;84;28151;-88
2022/09/16 05:44:25;;;;;;;7.08;4.72;;;;;;;13.72;100.00;97267.92;1665716;84;28087;-88
2022/09/16 05:46:52;;;;;;;7.03;4.50;;;;;;;13.78;100.00;97271.25;1645059;86;28127;-88
2022/09/16 05:49:19;;;;;;;8.10;4.55;;;;;;;13.78;100.00;97274.70;1660654;84;28075;-88
2022/09/16 05:51:47;;;;;;;7.42;4.42;;;;;;;13.85;100.00;97274.09;1667234;84;28211;-88
2022/09/16 05:54:19;;;;;;;6.62;4.97;;;;;;;13.90;100.00;97271.81;1660859;84;28068;-88
2022/09/16 05:56:47;;;;;;;8.58;3.85;;;;;;;13.92;100.00;97265.89;1637678;86;28013;-89
2022/09/16 05:59:15;;;;;;;5.78;3.92;;;;;;;13.95;100.00;97266.91;1666283;84;28158;-88
2022/09/16 06:01:41;;;;;;;6.30;4.08;;;;;;;13.94;100.00;97273.14;1659940;84;28122;-89
2022/09/16 06:04:11;;;;;;;4.95;3.83;;;;;;;13.97;100.00;97284.66;1666447;84;28013;-88
2022/09/16 06:06:40;;;;;;;5.53;4.15;;;;;;;13.98;100.00;97276.62;1630755;86;28068;-89
2022/09/16 06:09:21;;;;;;;7.37;3.55;;;;;;;14.02;100.00;97278.47;1667447;84;28130;-89
2022/09/16 06:11:50;;;;;;;5.55;3.20;;;;;;;14.03;100.00;97276.97;1666802;84;28142;-89
2022/09/16 06:14:21;;;;;;;6.00;3.20;;;;;;;14.06;100.00;97283.25;1664796;84;27998;-89
2022/09/16 06:16:54;;;;;;;4.95;3.27;;;;;;;14.10;100.00;97278.48;1665714;84;28104;-89
2022/09/16 06:19:25;;;;;;;5.42;2.50;;;;;;;14.14;100.00;97275.88;1665954;84;28168;-89
2022/09/16 06:21:48;;;;;;;5.45;3.10;;;;;;;14.18;100.00;97272.76;1659765;84;28197;-88
2022/09/16 06:24:18;;;;;;;4.10;2.80;;;;;;;14.24;100.00;97273.94;1657284;84;28106;-89
2022/09/16 06:26:46;;;;;;;3.62;2.58;;;;;;;14.31;100.00;97268.88;1661277;84;28004;-88
2022/09/16 06:29:14;;;;;;;3.00;2.45;;;;;;;14.39;100.00;97265.00;1653887;85;28081;-88
2022/09/16 06:31:42;;;;;;;5.83;2.60;;;;;;;14.49;100.00;97266.52;1628061;85;28096;-89
2022/09/16 06:34:11;;;;;;;6.15;2.50;;;;;;;14.57;100.00;97262.57;1649234;84;28126;-88
2022/09/16 06:36:54;;;;;;;4.78;2.30;;;;;;;14.67;100.00;97265.58;1688645;83;28093;-88
2022/09/16 06:39:21;;;;;;;3.33;1.95;;;;;;;14.76;100.00;97264.59;1686209;83;28189;-88
2022/09/16 06:41:51;;;;;;;7.10;2.27;;;;;;;14.86;100.00;97262.64;1709557;83;28119;-88
2022/09/16 06:44:17;;;;;;;3.92;1.85;;;;;;;14.90;100.00;97258.69;1689904;82;28162;-88
2022/09/16 06:46:44;;;;;;;4.15;1.75;;;;;;;14.94;100.00;97260.86;1685217;83;28007;-88
2022/09/16 06:49:11;;;;;;;4.00;1.80;;;;;;;15.06;100.00;97262.16;1684964;82;28170;-87
2022/09/16 06:51:42;;;;;;;4.78;1.62;;;;;;;15.18;100.00;97264.47;1684140;83;28062;-88
2022/09/16 06:54:07;;;;;;;3.55;2.00;;;;;;;15.22;100.00;97260.02;1684991;83;28100;-88
2022/09/16 06:56:38;;;;;;;2.95;1.75;;;;;;;15.25;100.00;97274.70;1685096;82;28084;-88
2022/09/16 06:59:04;;;;;;;5.92;2.08;;;;;;;15.22;100.00;97275.84;1660545;84;28078;-88
2022/09/16 07:01:31;;;;;;;2.87;1.52;;;;;;;15.23;100.00;97268.76;1689252;82;28049;-88
2022/09/16 07:04:07;;;;;;;6.40;1.70;;;;;;;15.25;100.00;97275.53;1687160;84;28128;-88
2022/09/16 07:06:33;;;;;;;5.67;1.70;;;;;;;15.25;100.00;97270.75;1686944;83;28097;-88
2022/09/16 07:09:02;;;;;;;4.37;1.87;;;;;;;15.29;100.00;97270.25;1686229;82;28123;-88
2022/09/16 07:11:28;;;;;;;3.50;1.42;;;;;;;15.27;100.00;97266.97;1683313;84;28048;-87
2022/09/16 07:13:59;;;;;;;3.65;1.92;;;;;;;15.23;100.00;97276.17;1653587;84;28029;-88
2022/09/16 07:16:24;;;;;;;5.15;1.77;;;;;;;15.19;100.00;97277.50;1684433;83;28082;-87
2022/09/16 07:18:56;;;;;;;2.87;1.55;;;;;;;15.20;100.00;97283.10;1681494;82;28078;-88
2022/09/16 07:21:30;;;;;;;2.37;1.80;;;;;;;15.23;100.00;97278.81;1659038;84;28106;-88
2022/09/16 07:24:00;;;;;;;2.75;1.67;;;;;;;15.26;100.00;97277.18;1681832;83;28129;-88
2022/09/16 07:26:30;;;;;;;1.62;1.30;;;;;;;15.27;100.00;97276.69;1687995;82;28090;-87
2022/09/16 07:29:11;;;;;;;5.10;2.00;;;;;;;15.27;100.00;97278.83;1679099;82;28133;-87
2022/09/16 07:31:38;;;;;;;3.33;1.98;;;;;;;15.26;100.00;97285.58;1685382;83;28079;-88
2022/09/16 07:34:15;;;;;;;4.10;1.62;;;;;;;15.18;100.00;97275.02;1647966;85;28133;-87
2022/09/16 07:36:49;;;;;;;3.98;1.90;;;;;;;15.26;100.00;97290.85;1651688;85;28092;-88
2022/09/16 07:39:17;;;;;;;2.20;1.65;;;;;;;15.28;100.00;97291.00;1649925;85;28027;-87
2022/09/16 07:41:45;;;;;;;1.90;1.37;;;;;;;15.31;100.00;97288.05;1617146;88;28065;-87
2022/09/16 07:44:19;;;;;;;2.80;1.30;;;;;;;15.36;100.00;97292.34;1623269;86;28120;-87
2022/09/16 07:46:46;;;;;;;2.22;1.22;;;;;;;15.44;100.00;97299.40;1620395;88;28201;-87
2022/09/16 07:49:14;;;;;;;5.58;1.60;;;;;;;15.57;100.00;97298.94;1672938;83;28065;-87
2022/09/16 07:51:41;;;;;;;4.03;1.40;;;;;;;15.65;100.00;97295.82;1653980;83;28092;-87
2022/09/16 07:54:11;;;;;;;4.72;1.75;;;;;;;15.68;100.00;97294.16;1678972;83;28066;-88
2022/09/16 07:56:39;;;;;;;3.27;1.07;;;;;;;15.66;100.00;97293.98;1647324;85;28079;-87
2022/09/16 07:59:09;;;;;;;2.95;1.30;;;;;;;15.67;100.00;97296.46;1620095;88;28175;-87
2022/09/16 08:01:38;;;;;;;1.92;1.02;;;;;;;15.71;100.00;97293.80;1684246;83;28139;-87
2022/09/16 08:04:04;;;;;;;1.82;1.00;;;;;;;15.77;100.00;97293.14;1678816;83;28012;-87
2022/09/16 08:06:36;;;;;;;3.00;1.20;;;;;;;15.85;100.00;97298.91;1665084;83;28113;-87
2022/09/16 08:09:02;;;;;;;4.60;1.27;;;;;;;15.93;100.00;97306.80;1645323;85;28078;-89
2022/09/16 08:11:30;;;;;;;4.83;1.17;;;;;;;16.03;100.00;97307.95;1647128;84;28188;-89
2022/09/16 08:14:02;;;;;;;2.95;1.50;;;;;;;16.04;100.00;97302.48;1648684;84;28153;-88
2022/09/16 08:16:28;;;;;;;3.75;2.27;;;;;;;16.06;100.00;97308.92;1647222;85;28007;-89
2022/09/16 08:18:57;;;;;;;3.02;2.12;;;;;;;16.06;100.00;97312.88;1618342;87;28108;-88
2022/09/16 08:21:28;;;;;;;5.50;2.60;;;;;;;16.04;100.00;97310.41;1679955;84;28071;-88
2022/09/16 08:24:01;;;;;;;2.27;1.45;;;;;;;16.03;100.00;97316.70;1676713;83;28028;-88
2022/09/16 08:26:27;;;;;;;2.80;1.70;;;;;;;16.00;100.00;97311.74;1674638;83;28019;-88
2022/09/16 08:28:54;;;;;;;5.42;2.37;;;;;;;16.03;100.00;97316.70;1677037;84;28082;-88
2022/09/16 08:31:20;;;;;;;3.90;3.42;;;;;;;16.07;100.00;97313.22;1682465;83;28063;-88
2022/09/16 08:33:49;;;;;;;3.80;1.92;;;;;;;16.04;100.00;97318.84;1669485;83;28038;-88
2022/09/16 08:36:21;;;;;;;3.42;2.58;;;;;;;16.06;100.00;97319.48;1673497;83;28068;-88
2022/09/16 08:38:52;;;;;;;3.37;2.30;;;;;;;16.14;100.00;97323.44;1676452;83;28073;-88
2022/09/16 08:41:40;;;;;;;3.05;1.60;;;;;;;16.14;100.00;97328.22;1683426;83;28077;-88
2022/09/16 08:44:31;;;;;;;1.37;0.95;;;;;;;16.17;100.00;97321.77;1679344;84;28062;-87
2022/09/16 08:47:37;;;;;;;3.77;1.40;;;;;;;16.19;100.00;97315.83;1677317;84;28078;-88
2022/09/16 08:50:07;;;;;;;5.75;1.75;;;;;;;16.29;100.00;97320.42;1679238;84;28087;-88
2022/09/16 08:52:37;;;;;;;5.20;1.45;;;;;;;16.24;100.00;97322.75;1678853;83;28057;-88
2022/09/16 08:55:13;;;;;;;3.30;1.52;;;;;;;16.24;100.00;97316.97;1676436;83;28068;-87
2022/09/16 08:57:44;;;;;;;2.02;1.27;;;;;;;16.27;100.00;97311.34;1677215;83;28183;-88
2022/09/16 09:00:14;;;;;;;2.47;1.30;;;;;;;16.37;100.00;97311.13;1670958;83;28113;-88
2022/09/16 09:03:05;;;;;;;2.47;1.10;;;;;;;16.42;100.00;97318.57;1652205;85;28207;-88
2022/09/16 09:05:41;;;;;;;2.50;1.47;;;;;;;16.46;100.00;97311.95;1627028;86;28063;-89
2022/09/16 09:08:14;;;;;;;2.30;1.20;;;;;;;16.47;100.00;97322.84;1620174;86;28081;-88
2022/09/16 09:10:56;;;;;;;3.70;1.27;;;;;;;16.42;100.00;97323.85;1648797;85;28130;-88
2022/09/16 09:13:36;;;;;;;2.55;1.77;;;;;;;16.36;100.00;97321.39;1650075;85;28172;-89
2022/09/16 09:16:35;;;;;;;3.22;1.30;;;;;;;16.32;100.00;97312.97;1652397;85;28103;-89
2022/09/16 09:19:23;;;;;;;1.60;0.95;;;;;;;16.24;100.00;97318.29;1648041;85;28077;-89
2022/09/16 09:22:31;;;;;;;4.90;1.42;;;;;;;16.18;100.00;97322.09;1632292;85;28116;-89
2022/09/16 09:25:38;;;;;;;1.75;1.15;;;;;;;16.20;100.00;97329.37;1626436;85;28071;-89
2022/09/16 09:28:38;;;;;;;1.92;1.10;;;;;;;16.20;100.00;97316.96;1625524;86;28057;-89
2022/09/16 09:31:33;;;;;;;3.83;1.10;;;;;;;16.20;100.00;97316.96;1646191;84;28233;-89
2022/09/16 09:34:12;;;;;;;2.12;1.00;;;;;;;16.16;100.00;97324.07;1626271;86;28155;-88
2022/09/16 09:36:49;;;;;;;6.00;1.30;;;;;;;16.19;100.00;97324.58;1654505;85;28035;-88
2022/09/16 09:39:19;;;;;;;5.37;1.50;;;;;;;16.28;100.00;97324.05;1659497;84;28089;-89
2022/09/16 09:42:00;;;;;;;11.03;1.75;;;;;;;16.31;100.00;97325.02;1625824;86;28098;-89
2022/09/16 09:44:35;;;;;;;11.60;1.55;;;;;;;16.35;100.00;97322.88;1618165;86;28104;-89
2022/09/16 09:47:05;;;;;;;5.92;1.45;;;;;;;16.40;100.00;97324.51;1658827;85;28166;-89
2022/09/16 09:49:38;;;;;;;3.80;2.10;;;;;;;16.48;100.00;97313.89;1675050;83;28103;-88
2022/09/16 09:52:14;;;;;;;2.58;1.15;;;;;;;16.62;100.00;97320.66;1678252;83;27998;-88
2022/09/16 09:54:47;;;;;;;2.45;1.00;;;;;;;16.77;100.00;97307.53;1679355;83;28067;-88
2022/09/16 09:57:37;;;;;;;1.23;0.90;;;;;;;16.93;100.00;97308.76;1677818;83;28165;-88
2022/09/16 10:00:17;;;;;;;3.45;1.22;;;;;;;17.08;100.00;97312.30;1680650;83;28089;-89
2022/09/16 10:02:56;;;;;;;2.58;1.10;;;;;;;17.13;100.00;97313.09;1673341;83;28177;-89
2022/09/16 10:05:31;;;;;;;1.72;0.80;;;;;;;17.18;100.00;97317.37;1680079;83;28129;-89
2022/09/16 10:08:13;;;;;;;2.87;0.80;;;;;;;17.27;100.00;97318.13;1683353;83;28040;-88
2022/09/16 10:10:45;;;;;;;2.17;1.12;;;;;;;17.33;100.00;97318.25;1682431;83;28184;-89
2022/09/16 10:13:12;;;;;;;1.75;1.05;;;;;;;17.34;100.00;97313.30;1625674;86;28113;-88
2022/09/16 10:15:40;;;;;;;1.35;0.78;;;;;;;17.35;100.00;97312.77;1618009;86;28218;-88
2022/09/16 10:18:30;;;;;;;1.27;1.00;;;;;;;17.36;100.00;97307.31;1682214;83;28018;-88
2022/09/16 10:21:00;;;;;;;1.15;0.95;;;;;;;17.27;100.00;97303.09;1646983;85;28077;-88
2022/09/16 10:23:26;;;;;;;2.45;1.07;;;;;;;17.18;100.00;97303.33;1652927;85;28030;-89
2022/09/16 10:26:13;;;;;;;5.20;1.07;;;;;;;17.10;100.00;97299.73;1651965;85;28086;-88
2022/09/16 10:29:03;;;;;;;1.37;0.95;;;;;;;17.08;100.00;97299.08;1603463;87;28089;-89
2022/09/16 10:31:38;;;;;;;3.42;1.07;;;;;;;16.99;100.00;97288.24;1550697;90;28124;-89
2022/09/16 10:34:07;;;;;;;2.85;1.00;;;;;;;16.97;100.00;97302.13;1540837;86;28114;-89
2022/09/16 10:36:34;;;;;;;1.57;1.02;;;;;;;17.03;100.00;97296.63;1656227;84;28180;-89
2022/09/16 10:39:03;;;;;;;2.72;1.00;;;;;;;17.06;100.00;97291.84;1658986;85;28093;-88
2022/09/16 10:41:45;;;;;;;2.02;1.22;;;;;;;17.09;100.00;97289.33;1660282;85;28299;-88
2022/09/16 10:44:15;;;;;;;3.85;1.00;;;;;;;17.20;100.00;97289.41;1641203;85;28072;-88
2022/09/16 10:47:05;;;;;;;2.05;1.00;;;;;;;17.30;100.00;97286.03;1685806;82;28082;-88
2022/09/16 10:49:38;;;;;;;2.80;0.80;;;;;;;17.38;100.00;97275.41;1697011;82;28095;-88
2022/09/16 10:52:18;;;;;;;2.00;0.95;;;;;;;17.51;100.00;97284.89;1693776;82;28105;-88
2022/09/16 10:54:48;;;;;;;2.25;1.00;;;;;;;17.64;100.00;97273.21;1692284;83;28101;-88
2022/09/16 10:57:24;;;;;;;3.92;0.90;;;;;;;17.62;100.00;97277.84;1693876;84;27999;-88
2022/09/16 11:00:24;;;;;;;3.67;1.00;;;;;;;17.51;100.00;97281.72;1697188;82;28238;-88
2022/09/16 11:03:01;;;;;;;1.90;0.95;;;;;;;17.44;100.00;97283.95;1697560;82;28089;-88
2022/09/16 11:05:39;;;;;;;4.90;1.02;;;;;;;17.35;100.00;97275.24;1697560;82;28177;-88
2022/09/16 11:08:41;;;;;;;1.95;1.05;;;;;;;17.37;100.00;97273.25;1697771;82;28078;-88
2022/09/16 11:11:16;;;;;;;2.80;1.20;;;;;;;17.40;100.00;97274.20;1697092;84;28058;-88
2022/09/16 11:14:04;;;;;;;2.98;0.98;;;;;;;17.38;100.00;97271.44;1696002;84;28098;-88
2022/09/16 11:16:46;;;;;;;2.77;1.30;;;;;;;17.50;100.00;97270.02;1695912;84;28140;-88
2022/09/16 11:19:40;;;;;;;2.95;1.05;;;;;;;17.66;100.00;97261.14;1696188;82;28173;-88
2022/09/16 11:22:18;;;;;;;2.00;1.05;;;;;;;17.77;100.00;97250.94;1696701;84;28075;-89
2022/09/16 11:25:19;;;;;;;2.08;1.52;;;;;;;17.83;100.00;97252.86;1700751;82;28049;-88
2022/09/16 11:27:53;;;;;;;2.55;1.00;;;;;;;17.89;100.00;97252.64;1697108;82;28104;-88
2022/09/16 11:30:21;;;;;;;1.77;0.88;;;;;;;17.88;100.00;97249.67;1696050;82;28126;-88
2022/09/16 11:33:01;;;;;;;2.83;0.95;;;;;;;17.89;100.00;97244.17;1665735;84;28213;-88
2022/09/16 11:35:43;;;;;;;1.67;1.30;;;;;;;17.98;100.00;97247.06;1658277;84;28070;-88
2022/09/16 11:38:18;;;;;;;1.57;1.12;;;;;;;18.09;100.00;97246.28;1657910;84;28006;-88
2022/09/16 11:41:00;;;;;;;1.25;0.93;;;;;;;18.09;100.00;97245.79;1627559;85;28000;-89
2022/09/16 11:43:54;;;;;;;2.27;1.00;;;;;;;18.02;100.00;97242.72;1655605;84;28101;-89
2022/09/16 11:46:51;;;;;;;6.15;0.93;;;;;;;17.94;100.00;97242.33;1662445;84;28219;-89
2022/09/16 11:49:53;;;;;;;2.65;0.82;;;;;;;17.85;100.00;97245.55;1636814;86;28096;-88
2022/09/16 11:52:30;;;;;;;;;;;;;;;17.77;100.00;97239.52;1635959;85;28123;-88
2022/09/16 11:55:12;;;;;;;2.83;0.82;;;;;;;17.72;100.00;97249.83;1628531;86;20153;-89
2022/09/16 11:57:42;;;;;;;2.60;1.15;;;;;;;17.66;100.00;97247.41;1642787;84;28095;-88
2022/09/16 12:00:20;;;;;;;1.77;0.88;;;;;;;17.66;100.00;97239.97;1645309;84;28159;-89
2022/09/16 12:03:04;;;;;;;1.50;0.82;;;;;;;17.67;100.00;97238.97;1627163;86;28073;-88
2022/09/16 12:05:43;;;;;;;3.30;1.12;;;;;;;17.69;100.00;97231.16;1686015;83;28085;-88